createdAt,value
2019-01-08T00:00:48.968Z,51.34
2019-01-08T00:03:15.940Z,51.52
2019-01-08T00:05:43.172Z,51.83
2019-01-08T00:08:10.129Z,51.94
2019-01-08T00:10:36.997Z,52.06
2019-01-08T00:13:03.896Z,51.38
2019-01-08T00:15:30.848Z,51.36
2019-01-08T00:17:57.768Z,50.83
2019-01-08T00:20:24.651Z,50.84
2019-01-08T00:22:51.591Z,51.39
2019-01-08T00:25:18.739Z,50.88
2019-01-08T00:27:45.963Z,51.35
2019-01-08T00:30:12.945Z,51.03
2019-01-08T00:32:39.881Z,51.82
2019-01-08T00:35:07.168Z,51.63
2019-01-08T00:37:34.039Z,51.24
2019-01-08T00:40:00.930Z,50.56
2019-01-08T00:42:27.822Z,50.07
2019-01-08T00:44:55.077Z,51.17
2019-01-08T00:47:22.314Z,50.73
2019-01-08T00:49:49.313Z,50.58
2019-01-08T00:52:16.511Z,50.88
2019-01-08T00:54:43.422Z,50.81
2019-01-08T00:57:10.555Z,50.45
2019-01-08T00:59:37.704Z,50.82
2019-01-08T01:02:04.657Z,50.41
2019-01-08T01:04:31.565Z,50.61
2019-01-08T01:06:58.790Z,50.22
2019-01-08T01:09:25.672Z,49.84
2019-01-08T01:11:53.698Z,50.15
2019-01-08T01:14:20.673Z,50.04
2019-01-08T01:16:47.912Z,50.37
2019-01-08T01:19:15.143Z,51.11
2019-01-08T01:21:42.106Z,50.59
2019-01-08T01:24:09.235Z,51.27
2019-01-08T01:26:36.412Z,50.95
2019-01-08T01:29:03.389Z,51.30
2019-01-08T01:31:30.375Z,50.72
2019-01-08T01:33:57.666Z,51.30
2019-01-08T01:36:24.826Z,51.10
2019-01-08T01:38:53.694Z,51.29
2019-01-08T01:41:20.670Z,51.09
2019-01-08T01:43:47.553Z,52.48
2019-01-08T01:46:14.771Z,53.86
2019-01-08T01:48:41.705Z,53.50
2019-01-08T01:51:08.917Z,52.84
2019-01-08T01:53:35.895Z,52.65
2019-01-08T01:56:02.866Z,52.67
2019-01-08T01:58:29.814Z,53.07
2019-01-08T02:00:57.046Z,51.91
2019-01-08T02:03:23.935Z,52.05
2019-01-08T02:05:50.979Z,52.31
2019-01-08T02:08:18.219Z,52.75
2019-01-08T02:10:45.165Z,52.43
2019-01-08T02:13:12.325Z,51.88
2019-01-08T02:15:39.519Z,52.17
2019-01-08T02:18:06.662Z,54.05
2019-01-08T02:20:33.829Z,54.05
2019-01-08T02:23:00.725Z,52.54
2019-01-08T02:25:28.049Z,53.51
2019-01-08T02:27:55.193Z,52.93
2019-01-08T02:30:22.192Z,53.00
2019-01-08T02:32:49.149Z,51.73
2019-01-08T02:35:16.314Z,51.76
2019-01-08T02:37:43.539Z,51.56
2019-01-08T02:40:10.476Z,51.89
2019-01-08T02:42:37.354Z,52.24
2019-01-08T02:45:04.630Z,53.03
2019-01-08T02:47:31.521Z,53.10
2019-01-08T02:49:58.670Z,53.30
2019-01-08T02:52:25.886Z,52.16
2019-01-08T02:54:52.825Z,51.64
2019-01-08T02:57:19.766Z,51.17
2019-01-08T02:59:46.661Z,50.76
2019-01-08T03:02:13.626Z,52.43
2019-01-08T03:04:40.580Z,52.10
2019-01-08T03:07:07.740Z,51.73
2019-01-08T03:09:34.693Z,51.31
2019-01-08T03:12:01.939Z,53.43
2019-01-08T03:14:28.838Z,52.47
2019-01-08T03:16:55.828Z,51.78
2019-01-08T03:19:22.718Z,51.71
2019-01-08T03:21:49.908Z,52.18
2019-01-08T03:24:17.847Z,52.81
2019-01-08T03:26:44.826Z,52.68
2019-01-08T03:29:11.765Z,52.48
2019-01-08T03:31:38.706Z,52.48
2019-01-08T03:34:05.996Z,52.29
2019-01-08T03:36:33.023Z,52.22
2019-01-08T03:38:59.915Z,52.20
2019-01-08T03:41:26.875Z,51.92
2019-01-08T03:43:54.003Z,52.05
2019-01-08T03:46:21.134Z,52.17
2019-01-08T03:48:48.303Z,52.31
2019-01-08T03:51:15.256Z,51.94
2019-01-08T03:53:42.417Z,51.98
2019-01-08T03:56:09.308Z,52.04
2019-01-08T03:58:36.518Z,52.93
2019-01-08T04:01:03.645Z,53.61
2019-01-08T04:03:30.829Z,52.78
2019-01-08T04:05:57.806Z,52.31
2019-01-08T04:08:25.073Z,52.20
2019-01-08T04:10:52.265Z,51.81
2019-01-08T04:13:19.498Z,52.15
2019-01-08T04:15:46.621Z,51.98
2019-01-08T04:18:13.786Z,52.08
2019-01-08T04:20:40.772Z,52.37
2019-01-08T04:23:07.661Z,52.91
2019-01-08T04:25:34.593Z,52.62
2019-01-08T04:28:01.493Z,53.07
2019-01-08T04:30:28.707Z,52.20
2019-01-08T04:32:57.222Z,51.66
2019-01-08T04:35:24.165Z,52.11
2019-01-08T04:37:51.336Z,51.84
2019-01-08T04:40:44.155Z,51.96
2019-01-08T04:42:51.488Z,52.85
2019-01-08T04:45:18.890Z,52.16
2019-01-08T04:47:46.419Z,52.05
2019-01-08T04:50:13.715Z,51.63
2019-01-08T04:52:41.285Z,52.00
2019-01-08T04:55:08.274Z,51.49
2019-01-08T04:57:35.553Z,50.73
2019-01-08T05:00:02.601Z,52.57
2019-01-08T05:02:29.591Z,51.93
2019-01-08T05:04:57.270Z,51.30
2019-01-08T05:07:24.266Z,50.86
2019-01-08T05:09:51.269Z,51.50
2019-01-08T05:12:18.592Z,51.61
2019-01-08T05:14:45.639Z,51.85
2019-01-08T05:17:12.596Z,51.56
2019-01-08T05:19:39.856Z,51.61
2019-01-08T05:22:07.275Z,51.34
2019-01-08T05:24:34.234Z,51.36
2019-01-08T05:27:01.179Z,50.95
2019-01-08T05:29:28.163Z,51.41
2019-01-08T05:31:57.950Z,51.32
2019-01-08T05:34:25.067Z,51.62
2019-01-08T05:36:53.862Z,51.63
2019-01-08T05:39:20.887Z,50.38
2019-01-08T05:41:48.168Z,50.72
2019-01-08T05:44:15.150Z,51.11
2019-01-08T05:46:42.155Z,51.04
2019-01-08T05:49:09.177Z,49.94
2019-01-08T05:51:36.535Z,50.16
2019-01-08T05:54:03.818Z,50.72
2019-01-08T05:56:31.968Z,50.56
2019-01-08T05:58:58.967Z,50.97
2019-01-08T06:01:28.266Z,50.94
2019-01-08T06:03:54.913Z,50.27
2019-01-08T06:06:23.098Z,50.63
2019-01-08T06:08:50.062Z,50.55
2019-01-08T06:11:17.047Z,50.32
2019-01-08T06:13:44.160Z,50.07
2019-01-08T06:16:11.204Z,49.57
2019-01-08T06:18:42.419Z,50.43
2019-01-08T06:21:09.392Z,49.25
2019-01-08T06:23:36.363Z,49.37
2019-01-08T06:26:04.517Z,49.75
2019-01-08T06:28:31.522Z,49.85
2019-01-08T06:33:46.137Z,49.63
2019-01-08T06:36:13.607Z,50.07
2019-01-08T06:38:40.889Z,49.69
2019-01-08T06:41:08.182Z,49.53
2019-01-08T06:43:35.230Z,49.79
2019-01-08T06:46:02.584Z,49.68
2019-01-08T06:48:29.939Z,50.24
2019-01-08T06:50:57.353Z,50.01
2019-01-08T06:53:24.549Z,49.85
2019-01-08T06:55:51.545Z,50.46
2019-01-08T06:58:18.816Z,49.78
2019-01-08T07:00:47.561Z,49.45
2019-01-08T07:03:14.486Z,48.90
2019-01-08T07:05:41.452Z,48.93
2019-01-08T07:08:08.733Z,49.38
2019-01-08T07:10:35.642Z,49.48
2019-01-08T07:13:02.628Z,48.98
2019-01-08T07:15:29.670Z,49.81
2019-01-08T07:17:56.796Z,49.32
2019-01-08T07:20:23.704Z,49.75
2019-01-08T07:22:50.916Z,49.82
2019-01-08T07:25:18.189Z,49.63
2019-01-08T07:27:54.597Z,51.34
2019-01-08T07:30:23.631Z,51.44
2019-01-08T07:32:50.774Z,50.26
2019-01-08T07:35:17.733Z,49.53
2019-01-08T07:37:44.713Z,49.32
2019-01-08T07:40:11.961Z,48.76
2019-01-08T07:42:38.910Z,49.46
2019-01-08T07:45:05.789Z,49.75
2019-01-08T07:47:33.073Z,49.09
2019-01-08T07:50:00.309Z,49.37
2019-01-08T07:52:27.549Z,49.41
2019-01-08T07:54:54.805Z,48.50
2019-01-08T07:57:22.035Z,48.32
2019-01-08T07:59:49.210Z,48.69
2019-01-08T08:02:17.830Z,48.97
2019-01-08T08:04:47.724Z,49.24
2019-01-08T08:07:13.403Z,48.30
2019-01-08T08:09:40.328Z,49.33
2019-01-08T08:12:07.326Z,48.61
2019-01-08T08:14:34.259Z,49.85
2019-01-08T08:17:01.226Z,49.13
2019-01-08T08:19:30.652Z,48.63
2019-01-08T08:21:57.591Z,48.48
2019-01-08T08:24:24.601Z,48.45
2019-01-08T08:26:51.571Z,48.27
2019-01-08T08:29:18.614Z,48.56
2019-01-08T08:31:45.618Z,48.67
2019-01-08T08:34:12.629Z,47.66
2019-01-08T08:36:39.863Z,47.62
2019-01-08T08:39:06.819Z,47.53
2019-01-08T08:41:33.788Z,47.41
2019-01-08T08:44:00.722Z,47.54
2019-01-08T08:46:28.814Z,47.30
2019-01-08T08:48:56.024Z,46.80
2019-01-08T08:51:23.256Z,48.26
2019-01-08T08:53:52.728Z,47.80
2019-01-08T08:56:18.835Z,48.43
2019-01-08T08:58:45.811Z,49.43
2019-01-08T09:01:13.119Z,48.67
2019-01-08T09:03:40.102Z,48.77
2019-01-08T09:06:07.138Z,48.54
2019-01-08T09:08:34.115Z,47.26
2019-01-08T09:11:01.149Z,47.31
2019-01-08T09:13:28.140Z,47.08
2019-01-08T09:15:55.115Z,47.60
2019-01-08T09:18:22.092Z,47.90
2019-01-08T09:20:49.055Z,48.47
2019-01-08T09:23:16.015Z,47.47
2019-01-08T09:25:42.970Z,48.46
2019-01-08T09:28:11.258Z,48.09
2019-01-08T09:30:38.138Z,47.78
2019-01-08T09:33:05.020Z,47.36
2019-01-08T09:35:31.904Z,47.69
2019-01-08T09:37:58.947Z,48.44
2019-01-08T09:40:25.930Z,48.31
2019-01-08T09:42:53.083Z,47.75
2019-01-08T09:45:20.305Z,48.20
2019-01-08T09:47:47.542Z,48.43
2019-01-08T09:50:14.495Z,48.96
2019-01-08T09:52:41.770Z,48.71
2019-01-08T09:55:09.145Z,47.64
2019-01-08T09:57:36.454Z,48.57
2019-01-08T10:00:03.700Z,48.79
2019-01-08T10:02:30.994Z,48.78
2019-01-08T10:04:57.949Z,50.56
2019-01-08T10:07:25.998Z,49.25
2019-01-08T10:09:52.940Z,48.78
2019-01-08T10:12:19.827Z,48.28
2019-01-08T10:14:47.049Z,47.86
2019-01-08T10:17:14.028Z,48.49
2019-01-08T10:19:40.972Z,49.05
2019-01-08T10:22:08.166Z,48.42
2019-01-08T10:24:35.097Z,48.68
2019-01-08T10:27:02.004Z,48.50
2019-01-08T10:29:29.235Z,48.91
2019-01-08T10:31:56.472Z,48.45
2019-01-08T10:34:23.426Z,47.78
2019-01-08T10:36:50.401Z,48.33
2019-01-08T10:39:17.365Z,48.43
2019-01-08T10:41:44.578Z,48.45
2019-01-08T10:44:11.540Z,48.78
2019-01-08T10:46:38.501Z,48.28
2019-01-08T10:49:05.370Z,47.51
2019-01-08T10:51:32.284Z,47.91
2019-01-08T10:53:59.200Z,47.88
2019-01-08T10:56:26.184Z,47.96
2019-01-08T10:58:53.114Z,49.68
2019-01-08T11:01:19.987Z,49.19
2019-01-08T11:03:50.989Z,49.27
2019-01-08T11:06:17.891Z,49.98
2019-01-08T11:08:44.772Z,49.65
2019-01-08T11:11:14.728Z,49.97
2019-01-08T11:13:43.339Z,49.79
2019-01-08T11:16:10.314Z,49.91
2019-01-08T11:18:39.306Z,49.87
2019-01-08T11:21:06.291Z,49.82
2019-01-08T11:23:33.462Z,49.44
2019-01-08T11:26:00.598Z,49.17
2019-01-08T11:28:27.598Z,50.25
2019-01-08T11:30:54.476Z,49.17
2019-01-08T11:33:21.445Z,50.13
2019-01-08T11:35:48.670Z,49.69
2019-01-08T11:38:15.659Z,49.60
2019-01-08T11:40:42.812Z,48.92
2019-01-08T11:43:11.743Z,49.07
2019-01-08T11:45:39.582Z,48.52
2019-01-08T11:48:06.582Z,48.06
2019-01-08T11:50:33.823Z,48.23
2019-01-08T11:53:00.796Z,48.83
2019-01-08T11:55:27.741Z,48.65
2019-01-08T11:57:54.734Z,48.94
2019-01-08T12:00:21.717Z,49.54
2019-01-08T12:02:48.697Z,49.42
2019-01-08T12:05:15.671Z,49.41
2019-01-08T12:07:52.000Z,49.95
2019-01-08T12:10:16.995Z,49.41
2019-01-08T12:12:44.033Z,49.35
2019-01-08T12:15:11.043Z,49.85
2019-01-08T12:17:39.169Z,50.35
2019-01-08T12:20:06.204Z,50.07
2019-01-08T12:22:40.812Z,49.67
2019-01-08T12:25:05.102Z,50.36
2019-01-08T12:27:32.433Z,50.88
2019-01-08T12:29:59.385Z,51.12
2019-01-08T12:32:26.441Z,50.14
2019-01-08T12:34:57.239Z,50.57
2019-01-08T12:40:12.318Z,50.72
2019-01-08T12:42:39.677Z,50.81
2019-01-08T12:45:08.860Z,51.38
2019-01-08T12:47:36.159Z,50.79
2019-01-08T12:50:03.976Z,49.74
2019-01-08T12:52:30.957Z,52.53
2019-01-08T12:54:58.047Z,53.00
2019-01-08T12:57:25.038Z,51.51
2019-01-08T12:59:52.023Z,50.38
2019-01-08T13:02:19.131Z,51.06
2019-01-08T13:04:46.151Z,51.20
2019-01-08T13:07:13.109Z,50.61
2019-01-08T13:09:40.082Z,50.81
2019-01-08T13:12:07.312Z,51.01
2019-01-08T13:14:34.237Z,51.02
2019-01-08T13:17:01.230Z,51.97
2019-01-08T13:19:28.577Z,51.18
2019-01-08T13:21:55.533Z,51.55
2019-01-08T13:24:22.786Z,50.75
2019-01-08T13:26:49.776Z,50.46
2019-01-08T13:29:16.814Z,50.98
2019-01-08T13:31:43.761Z,50.71
2019-01-08T13:34:10.755Z,50.91
2019-01-08T13:36:37.952Z,51.81
2019-01-08T13:39:04.858Z,51.56
2019-01-08T13:41:32.048Z,51.98
2019-01-08T13:44:00.256Z,50.73
2019-01-08T13:46:27.164Z,51.38
2019-01-08T13:48:54.349Z,51.94
2019-01-08T13:51:21.566Z,52.50
2019-01-08T13:53:48.733Z,52.08
2019-01-08T13:56:15.744Z,51.93
2019-01-08T13:58:45.687Z,52.30
2019-01-08T14:01:11.407Z,52.29
2019-01-08T14:03:38.381Z,53.40
2019-01-08T14:06:07.736Z,52.13
2019-01-08T14:08:34.256Z,52.04
2019-01-08T14:11:02.886Z,51.61
2019-01-08T14:13:30.297Z,51.96
2019-01-08T14:15:57.478Z,52.79
2019-01-08T14:18:24.401Z,52.04
2019-01-08T14:20:51.325Z,51.74
2019-01-08T14:23:18.693Z,51.01
2019-01-08T14:25:45.753Z,51.70
2019-01-08T14:28:12.766Z,51.35
2019-01-08T14:30:40.051Z,51.19
2019-01-08T14:33:07.042Z,52.84
2019-01-08T14:35:34.054Z,51.87
2019-01-08T14:38:01.757Z,51.50
2019-01-08T14:40:34.440Z,50.34
2019-01-08T14:43:02.471Z,50.49
2019-01-08T14:45:29.963Z,50.48
2019-01-08T14:47:56.914Z,50.70
2019-01-08T14:50:24.176Z,50.62
2019-01-08T14:52:51.194Z,50.57
2019-01-08T14:55:18.620Z,51.22
2019-01-08T14:57:47.987Z,50.77
2019-01-08T15:00:14.219Z,50.94
2019-01-08T15:02:49.234Z,51.08
2019-01-08T15:05:10.386Z,51.30
2019-01-08T15:07:37.791Z,51.01
2019-01-08T15:10:04.953Z,50.52
2019-01-08T15:12:31.923Z,50.13
2019-01-08T15:14:59.196Z,50.23
2019-01-08T15:17:26.129Z,50.77
2019-01-08T15:19:53.106Z,51.19
2019-01-08T15:22:21.960Z,51.35
2019-01-08T15:24:49.198Z,51.46
2019-01-08T15:27:16.668Z,50.77
2019-01-08T15:29:43.650Z,51.37
2019-01-08T15:32:10.624Z,51.75
2019-01-08T15:34:37.566Z,51.09
2019-01-08T15:37:04.972Z,50.75
2019-01-08T15:39:31.925Z,50.89
2019-01-08T15:42:00.250Z,50.48
2019-01-08T15:44:27.449Z,50.92
2019-01-08T15:46:54.441Z,51.11
2019-01-08T15:49:21.413Z,51.84
2019-01-08T15:51:48.376Z,50.50
2019-01-08T15:54:15.398Z,51.09
2019-01-08T15:56:44.719Z,50.20
2019-01-08T15:59:11.280Z,50.48
2019-01-08T16:01:39.181Z,49.86
2019-01-08T16:04:06.147Z,50.31
2019-01-08T16:06:33.145Z,52.15
2019-01-08T16:09:00.130Z,51.41
2019-01-08T16:11:27.155Z,51.46
2019-01-08T16:13:55.097Z,50.96
2019-01-08T16:16:22.117Z,51.26
2019-01-08T16:18:49.293Z,50.97
2019-01-08T16:21:16.300Z,50.41
2019-01-08T16:23:43.552Z,52.03
2019-01-08T16:26:10.539Z,51.71
2019-01-08T16:28:37.781Z,51.26
2019-01-08T16:31:05.094Z,50.44
2019-01-08T16:33:38.100Z,50.38
2019-01-08T16:36:06.689Z,50.22
2019-01-08T16:38:35.291Z,50.43
2019-01-08T16:41:02.545Z,50.10
2019-01-08T16:43:29.802Z,49.88
2019-01-08T16:45:56.773Z,50.36
2019-01-08T16:48:24.033Z,51.08
2019-01-08T16:50:50.961Z,51.04
2019-01-08T16:53:17.966Z,50.68
2019-01-08T16:55:46.944Z,50.62
2019-01-08T16:58:15.038Z,50.66
2019-01-08T17:00:41.921Z,51.06
2019-01-08T17:03:09.150Z,51.08
2019-01-08T17:05:36.015Z,51.55
2019-01-08T17:08:03.348Z,51.69
2019-01-08T17:10:30.229Z,51.53
2019-01-08T17:12:57.538Z,51.15
2019-01-08T17:15:24.415Z,51.40
2019-01-08T17:17:51.402Z,51.24
2019-01-08T17:20:18.698Z,51.55
2019-01-08T17:22:45.963Z,51.39
2019-01-08T17:25:12.953Z,50.30
2019-01-08T17:27:39.931Z,50.44
2019-01-08T17:30:06.821Z,50.89
2019-01-08T17:32:34.242Z,50.60
2019-01-08T17:35:01.588Z,50.84
2019-01-08T17:37:28.838Z,51.43
2019-01-08T17:39:55.727Z,51.54
2019-01-08T17:42:22.896Z,51.22
2019-01-08T17:44:49.933Z,50.75
2019-01-08T17:47:17.295Z,50.04
2019-01-08T17:49:44.336Z,50.66
2019-01-08T17:52:11.351Z,50.41
2019-01-08T17:54:38.438Z,50.60
2019-01-08T17:57:08.841Z,50.12
2019-01-08T17:59:35.869Z,50.40
2019-01-08T18:02:02.804Z,50.10
2019-01-08T18:04:29.796Z,49.69
2019-01-08T18:06:57.003Z,49.59
2019-01-08T18:09:24.860Z,50.14
2019-01-08T18:11:52.447Z,50.30
2019-01-08T18:14:19.836Z,51.14
2019-01-08T18:16:47.099Z,50.86
2019-01-08T18:19:14.446Z,50.58
2019-01-08T18:21:41.483Z,51.02
2019-01-08T18:24:08.833Z,51.14
2019-01-08T18:26:36.352Z,51.03
2019-01-08T18:29:03.774Z,50.99
2019-01-08T18:31:38.146Z,51.73
2019-01-08T18:34:05.411Z,50.82
2019-01-08T18:36:32.800Z,51.17
2019-01-08T18:39:02.063Z,51.77
2019-01-08T18:41:30.828Z,50.96
2019-01-08T18:43:57.887Z,51.11
2019-01-08T18:46:24.864Z,51.47
2019-01-08T18:48:52.016Z,51.44
2019-01-08T18:51:19.226Z,51.41
2019-01-08T18:53:46.507Z,51.04
2019-01-08T18:56:13.787Z,51.34
2019-01-08T18:58:42.037Z,51.64
2019-01-08T19:01:08.965Z,52.35
2019-01-08T19:03:37.591Z,51.84
2019-01-08T19:06:04.940Z,51.66
2019-01-08T19:08:32.945Z,51.35
2019-01-08T19:11:07.115Z,51.11
2019-01-08T19:13:34.383Z,51.53
2019-01-08T19:16:05.484Z,50.73
2019-01-08T19:18:37.654Z,51.36
2019-01-08T19:21:04.841Z,51.22
2019-01-08T19:23:35.365Z,51.65
2019-01-08T19:26:02.306Z,51.99
2019-01-08T19:28:35.437Z,51.51
2019-01-08T19:31:02.514Z,51.20
2019-01-08T19:33:35.295Z,50.61
2019-01-08T19:36:13.310Z,50.55
2019-01-08T19:38:55.067Z,51.27
2019-01-08T19:41:41.620Z,50.77
2019-01-08T19:47:20.140Z,50.29
2019-01-08T19:53:02.065Z,50.94
2019-01-08T19:55:36.932Z,50.86
2019-01-08T19:58:06.899Z,50.36
2019-01-08T20:00:41.808Z,50.64
2019-01-08T20:03:09.267Z,50.91
2019-01-08T20:06:04.282Z,50.79
2019-01-08T20:08:30.024Z,50.31
2019-01-08T20:10:57.048Z,50.15
2019-01-08T20:14:05.905Z,54.98
2019-01-08T20:18:51.175Z,54.55
2019-01-08T20:21:25.086Z,52.66
2019-01-08T20:24:07.630Z,51.55
2019-01-08T20:29:31.287Z,54.49
2019-01-08T20:31:58.250Z,54.44
2019-01-08T20:34:26.801Z,54.25
2019-01-08T20:37:12.316Z,53.16
2019-01-08T20:39:31.946Z,54.22
2019-01-08T20:44:57.437Z,53.43
2019-01-08T20:47:16.515Z,52.78
2019-01-08T20:49:43.510Z,53.14
2019-01-08T20:52:11.872Z,52.47
2019-01-08T20:54:56.129Z,52.47
2019-01-08T20:57:21.995Z,51.23
2019-01-08T20:59:49.309Z,52.63
2019-01-08T21:02:16.602Z,51.34
2019-01-08T21:04:44.957Z,51.65
2019-01-08T21:10:21.430Z,51.75
2019-01-08T21:12:29.192Z,50.77
2019-01-08T21:15:05.546Z,50.55
2019-01-08T21:17:35.400Z,49.48
2019-01-08T21:20:02.616Z,49.35
2019-01-08T21:22:38.942Z,49.88
2019-01-08T21:25:24.878Z,49.88
2019-01-08T21:27:52.915Z,50.17
2019-01-08T21:30:20.049Z,50.08
2019-01-08T21:32:47.581Z,50.61
2019-01-08T21:35:14.876Z,51.09
2019-01-08T21:37:42.549Z,50.87
2019-01-08T21:40:09.894Z,50.85
2019-01-08T21:42:40.073Z,51.70
2019-01-08T21:45:08.045Z,50.95
2019-01-08T21:47:36.857Z,50.39
2019-01-08T21:50:04.353Z,51.04
2019-01-08T21:52:31.523Z,50.68
2019-01-08T21:55:02.848Z,51.35
2019-01-08T21:57:30.286Z,51.54
2019-01-08T22:00:05.774Z,51.31
2019-01-08T22:02:34.958Z,50.39
2019-01-08T22:05:02.194Z,49.77
2019-01-08T22:07:29.253Z,50.10
2019-01-08T22:12:43.838Z,49.57
2019-01-08T22:15:13.106Z,50.84
2019-01-08T22:17:40.072Z,51.51
2019-01-08T22:20:07.234Z,51.63
2019-01-08T22:22:38.098Z,51.72
2019-01-08T22:25:04.447Z,51.16
2019-01-08T22:27:31.718Z,50.72
2019-01-08T22:29:58.694Z,49.61
2019-01-08T22:32:26.025Z,50.06
2019-01-08T22:35:01.805Z,50.43
2019-01-08T22:37:22.101Z,50.80
2019-01-08T22:39:49.938Z,50.40
2019-01-08T22:42:17.117Z,50.36
2019-01-08T22:44:44.054Z,50.35
2019-01-08T22:47:11.277Z,50.76
2019-01-08T22:49:38.217Z,50.22
2019-01-08T22:52:05.609Z,50.68
2019-01-08T22:54:32.561Z,50.55
2019-01-08T22:56:59.512Z,51.01
2019-01-08T22:59:26.478Z,51.88
2019-01-08T23:01:53.364Z,51.95
2019-01-08T23:04:20.558Z,52.42
2019-01-08T23:06:47.833Z,52.38
2019-01-08T23:09:14.982Z,53.08
2019-01-08T23:11:41.997Z,53.39
2019-01-08T23:14:08.910Z,52.84
2019-01-08T23:16:36.130Z,52.66
2019-01-08T23:19:03.100Z,51.77
2019-01-08T23:21:30.102Z,51.53
2019-01-08T23:23:57.100Z,51.22
2019-01-08T23:26:24.052Z,52.36
2019-01-08T23:28:51.222Z,52.23
2019-01-08T23:31:18.331Z,51.02
2019-01-08T23:33:45.228Z,49.91
2019-01-08T23:36:12.553Z,50.67
2019-01-08T23:38:39.896Z,51.34
2019-01-08T23:41:07.062Z,50.72
2019-01-08T23:43:34.001Z,51.37
2019-01-08T23:46:00.950Z,51.44
2019-01-08T23:48:28.236Z,50.77
2019-01-08T23:50:55.184Z,51.09
2019-01-08T23:53:22.512Z,51.15
2019-01-08T23:55:50.786Z,50.92
2019-01-08T23:58:19.009Z,51.13
